Time;durP1;ratioP1;P1;durP2;ratioP2;P2;SDS_P1;SDS_P2;PMS_P1;PMS_P2;Temp;Humidity;BMP_temperature;BMP_pressure;BME280_temperature;BME280_humidity;BME280_pressure;Samples;Min_cycle;Max_cycle;Signal;HPM_P1;HPM_P2
2022/03/05 00:00:27;;;;;;;5.45;1.17;;;;;;;;;;4882417;29;20158;-67
2022/03/05 00:02:59;;;;;;;8.30;1.20;;;;;;;;;;4914290;29;20067;-68
2022/03/05 00:05:33;;;;;;;2.05;1.23;;;;;;;;;;4887440;29;20453;-68
2022/03/05 00:08:07;;;;;;;5.50;1.45;;;;;;;;;;4910920;29;20047;-67
2022/03/05 00:10:40;;;;;;;4.05;1.10;;;;;;;;;;4920444;29;20699;-68
2022/03/05 00:13:11;;;;;;;4.50;1.85;;;;;;;;;;4966524;28;20062;-67
2022/03/05 00:15:43;;;;;;;4.30;1.50;;;;;;;;;;4968634;28;20078;-67
2022/03/05 00:18:15;;;;;;;5.65;1.55;;;;;;;;;;4966946;28;20062;-67
2022/03/05 00:20:51;;;;;;;5.70;1.60;;;;;;;;;;4929989;29;20452;-68
2022/03/05 00:23:22;;;;;;;10.93;1.70;;;;;;;;;;4894829;29;20636;-67
2022/03/05 00:25:52;;;;;;;4.70;1.15;;;;;;;;;;4913602;29;20185;-68
2022/03/05 00:28:23;;;;;;;6.93;1.20;;;;;;;;;;4898377;29;20472;-67
2022/03/05 00:31:00;;;;;;;5.07;1.60;;;;;;;;;;4895195;29;20048;-67
2022/03/05 00:33:35;;;;;;;3.58;1.30;;;;;;;;;;4909785;29;20061;-67
2022/03/05 00:36:05;;;;;;;7.40;1.30;;;;;;;;;;4941779;28;20063;-67
2022/03/05 00:38:35;;;;;;;4.20;1.30;;;;;;;;;;4965553;28;20697;-67
2022/03/05 00:41:06;;;;;;;5.10;1.42;;;;;;;;;;4945936;28;20049;-67
2022/03/05 00:43:41;;;;;;;3.15;1.30;;;;;;;;;;4961098;28;20049;-67
2022/03/05 00:46:15;;;;;;;2.75;1.23;;;;;;;;;;5006621;28;20066;-67
2022/03/05 00:48:46;;;;;;;2.55;1.23;;;;;;;;;;4972166;28;20054;-67
2022/03/05 00:51:17;;;;;;;4.72;1.45;;;;;;;;;;4986551;28;20054;-67
2022/03/05 00:53:50;;;;;;;5.43;1.30;;;;;;;;;;4990267;28;20188;-67
2022/03/05 00:56:21;;;;;;;;;;;;;;;;;;4975023;28;20050;-67
2022/03/05 00:58:56;;;;;;;6.05;1.38;;;;;;;;;;5004236;28;19921;-67
2022/03/05 01:01:26;;;;;;;6.00;1.65;;;;;;;;;;4933803;29;20058;-67
2022/03/05 01:03:59;;;;;;;8.18;1.30;;;;;;;;;;4949243;28;20092;-67
2022/03/05 01:06:37;;;;;;;3.55;1.60;;;;;;;;;;4934564;29;20078;-67
2022/03/05 01:09:13;;;;;;;5.30;1.58;;;;;;;;;;4931130;29;20159;-67
2022/03/05 01:11:43;;;;;;;7.78;1.85;;;;;;;;;;4931814;29;20056;-67
2022/03/05 01:14:16;;;;;;;8.52;1.52;;;;;;;;;;4931800;29;20052;-67
2022/03/05 01:16:50;;;;;;;2.67;1.40;;;;;;;;;;4912852;29;20048;-67
2022/03/05 01:19:23;;;;;;;3.38;1.45;;;;;;;;;;4911930;29;20052;-67
2022/03/05 01:21:53;;;;;;;4.95;1.60;;;;;;;;;;4912497;29;20056;-67
2022/03/05 01:24:24;;;;;;;5.70;1.42;;;;;;;;;;4912648;29;20048;-67
2022/03/05 01:26:59;;;;;;;4.88;1.50;;;;;;;;;;4896443;29;20055;-67
2022/03/05 01:29:31;;;;;;;5.03;1.77;;;;;;;;;;4898689;29;20421;-66
2022/03/05 01:32:03;;;;;;;4.50;1.50;;;;;;;;;;4898489;29;20059;-67
2022/03/05 01:34:34;;;;;;;7.40;1.55;;;;;;;;;;4911310;29;20584;-67
2022/03/05 01:37:05;;;;;;;;;;;;;;;;;;4902459;29;20052;-67
2022/03/05 01:39:38;;;;;;;6.75;1.67;;;;;;;;;;4944827;29;19929;-67
2022/03/05 01:42:09;;;;;;;11.73;2.08;;;;;;;;;;4950516;29;20590;-67
2022/03/05 01:44:43;;;;;;;6.75;1.33;;;;;;;;;;4918635;29;20059;-67
2022/03/05 01:47:15;;;;;;;7.97;1.27;;;;;;;;;;4988218;28;20050;-67
2022/03/05 01:49:46;;;;;;;4.45;1.50;;;;;;;;;;4988255;28;20054;-67
2022/03/05 01:52:20;;;;;;;5.65;1.60;;;;;;;;;;4989003;28;20054;-67
2022/03/05 01:54:51;;;;;;;7.03;1.75;;;;;;;;;;4950197;29;20427;-67
2022/03/05 01:57:22;;;;;;;4.35;1.55;;;;;;;;;;4980742;28;20055;-67
2022/03/05 01:59:54;;;;;;;7.80;1.77;;;;;;;;;;4945862;29;20071;-67
2022/03/05 02:02:31;;;;;;;4.38;1.30;;;;;;;;;;4930742;29;20047;-67
2022/03/05 02:05:03;;;;;;;5.40;1.92;;;;;;;;;;4931576;29;20059;-67
2022/03/05 02:07:38;;;;;;;5.30;1.40;;;;;;;;;;4898841;29;20428;-67
2022/03/05 02:10:11;;;;;;;9.60;1.85;;;;;;;;;;4892853;29;20057;-67
2022/03/05 02:12:44;;;;;;;3.70;1.25;;;;;;;;;;4859406;29;20049;-68
2022/03/05 02:15:14;;;;;;;3.70;1.55;;;;;;;;;;4914016;29;20086;-67
2022/03/05 02:17:45;;;;;;;2.45;1.15;;;;;;;;;;4927651;29;20059;-67
2022/03/05 02:20:16;;;;;;;4.40;1.27;;;;;;;;;;4931288;29;20056;-67
2022/03/05 02:22:47;;;;;;;4.53;1.25;;;;;;;;;;4931155;29;20438;-67
2022/03/05 02:25:18;;;;;;;4.43;1.20;;;;;;;;;;4893197;29;20068;-67
2022/03/05 02:27:48;;;;;;;2.58;0.82;;;;;;;;;;4873460;29;20064;-67
2022/03/05 02:30:19;;;;;;;2.80;1.20;;;;;;;;;;4880423;29;20488;-67
2022/03/05 02:32:51;;;;;;;3.08;1.20;;;;;;;;;;4911862;29;20056;-68
2022/03/05 02:35:26;;;;;;;5.38;1.30;;;;;;;;;;4894421;29;20052;-68
2022/03/05 02:37:57;;;;;;;3.25;1.20;;;;;;;;;;4918368;29;20060;-67
2022/03/05 02:40:27;;;;;;;4.53;1.35;;;;;;;;;;4899985;29;20083;-67
2022/03/05 02:43:00;;;;;;;3.00;1.30;;;;;;;;;;4918927;29;20432;-67
2022/03/05 02:45:30;;;;;;;2.60;0.93;;;;;;;;;;4933081;29;20448;-67
2022/03/05 02:48:06;;;;;;;3.47;1.63;;;;;;;;;;4945736;28;20427;-67
2022/03/05 02:50:37;;;;;;;2.95;1.00;;;;;;;;;;4921639;29;20499;-67
2022/03/05 02:53:07;;;;;;;5.45;1.40;;;;;;;;;;4953113;29;20519;-67
2022/03/05 02:55:41;;;;;;;2.20;1.08;;;;;;;;;;4921995;29;20058;-66
2022/03/05 02:58:13;;;;;;;3.83;1.17;;;;;;;;;;4965297;28;20050;-67
2022/03/05 03:00:44;;;;;;;2.90;1.13;;;;;;;;;;4972032;28;20427;-67
2022/03/05 03:03:14;;;;;;;2.10;1.00;;;;;;;;;;4997829;28;20057;-67
2022/03/05 03:05:45;;;;;;;2.60;1.10;;;;;;;;;;5044001;28;20752;-67
2022/03/05 03:08:19;;;;;;;3.75;1.00;;;;;;;;;;5071347;28;20512;-67
2022/03/05 03:10:53;;;;;;;3.45;0.90;;;;;;;;;;5018127;28;20651;-67
2022/03/05 03:13:25;;;;;;;1.13;0.80;;;;;;;;;;5051534;28;20049;-67
2022/03/05 03:15:55;;;;;;;2.58;1.00;;;;;;;;;;5056493;28;20052;-67
2022/03/05 03:18:29;;;;;;;3.70;1.15;;;;;;;;;;5071704;28;20049;-67
2022/03/05 03:21:00;;;;;;;1.67;0.63;;;;;;;;;;5065719;28;20041;-67
2022/03/05 03:23:31;;;;;;;;;;;;;;;;;;5066391;28;20052;-68
2022/03/05 03:26:02;;;;;;;5.10;1.00;;;;;;;;;;5071494;28;20402;-67
2022/03/05 03:28:37;;;;;;;2.55;0.85;;;;;;;;;;5080682;28;20040;-67
2022/03/05 03:31:08;;;;;;;2.83;0.93;;;;;;;;;;5093467;28;20036;-67
2022/03/05 03:33:40;;;;;;;1.63;0.75;;;;;;;;;;5057041;28;20051;-68
2022/03/05 03:36:10;;;;;;;0.80;0.60;;;;;;;;;;5093469;28;20059;-68
2022/03/05 03:38:42;;;;;;;3.13;0.50;;;;;;;;;;5091119;28;20066;-67
2022/03/05 03:41:14;;;;;;;2.97;0.80;;;;;;;;;;5092314;28;20941;-67
2022/03/05 03:43:46;;;;;;;1.40;0.73;;;;;;;;;;5092663;28;20036;-67
2022/03/05 03:46:16;;;;;;;0.90;0.52;;;;;;;;;;5070453;28;20526;-67
2022/03/05 03:48:48;;;;;;;4.53;0.50;;;;;;;;;;5068862;28;20484;-67
2022/03/05 03:51:19;;;;;;;1.30;0.70;;;;;;;;;;5070919;28;20056;-67
2022/03/05 03:53:50;;;;;;;1.45;0.60;;;;;;;;;;5070688;28;20056;-67
2022/03/05 03:56:20;;;;;;;1.38;0.50;;;;;;;;;;5049485;28;20408;-67
2022/03/05 03:58:50;;;;;;;2.72;0.80;;;;;;;;;;5000110;28;20064;-67
2022/03/05 04:01:23;;;;;;;4.55;0.80;;;;;;;;;;5017349;28;20056;-67
2022/03/05 04:03:57;;;;;;;3.05;0.50;;;;;;;;;;5050502;28;20098;-67
2022/03/05 04:08:41;;;;;;;3.28;0.52;;;;;;;;;;5017266;28;20061;-66
2022/03/05 04:09:22;;;;;;;3.92;0.70;;;;;;;;;;5045776;28;20488;-67
2022/03/05 04:11:52;;;;;;;3.05;0.93;;;;;;;;;;5030366;28;20133;-67
2022/03/05 04:14:27;;;;;;;4.72;0.90;;;;;;;;;;5030355;28;20060;-66
2022/03/05 04:16:59;;;;;;;;;;;;;;;;;;5030580;28;20053;-66
2022/03/05 04:19:30;;;;;;;4.60;0.70;;;;;;;;;;5029865;28;20296;-66
2022/03/05 04:22:00;;;;;;;4.45;0.60;;;;;;;;;;5016616;28;20056;-67
2022/03/05 04:24:33;;;;;;;1.83;0.70;;;;;;;;;;5065980;28;20079;-67
2022/03/05 04:27:05;;;;;;;3.25;0.70;;;;;;;;;;5037423;28;20060;-66
2022/03/05 04:29:35;;;;;;;3.53;0.52;;;;;;;;;;5069855;28;20045;-66
2022/03/05 04:32:06;;;;;;;3.28;0.90;;;;;;;;;;5036903;28;20057;-66
2022/03/05 04:34:43;;;;;;;5.53;0.90;;;;;;;;;;5071663;28;20053;-66
2022/03/05 04:37:17;;;;;;;2.13;0.82;;;;;;;;;;5072207;28;20514;-66
2022/03/05 04:39:50;;;;;;;3.15;0.75;;;;;;;;;;5038719;28;20074;-67
2022/03/05 04:42:20;;;;;;;1.83;0.65;;;;;;;;;;5070951;28;20040;-67
2022/03/05 04:44:51;;;;;;;2.05;0.75;;;;;;;;;;5049379;28;20064;-67
2022/03/05 04:47:28;;;;;;;0.95;0.45;;;;;;;;;;5049802;28;20080;-67
2022/03/05 04:49:58;;;;;;;4.70;0.95;;;;;;;;;;5051024;28;20059;-67
2022/03/05 04:52:28;;;;;;;3.47;0.70;;;;;;;;;;5048975;28;20078;-67
2022/03/05 04:54:58;;;;;;;1.65;0.60;;;;;;;;;;5049059;28;20604;-67
2022/03/05 04:57:31;;;;;;;3.33;0.80;;;;;;;;;;5009623;28;20045;-67
2022/03/05 05:00:05;;;;;;;5.50;0.93;;;;;;;;;;5009354;28;20068;-67
2022/03/05 05:02:36;;;;;;;3.85;0.80;;;;;;;;;;4992814;28;20059;-67
2022/03/05 05:05:06;;;;;;;3.75;0.60;;;;;;;;;;5009514;28;20050;-67
2022/03/05 05:07:39;;;;;;;6.28;1.67;;;;;;;;;;4989435;28;20059;-67
2022/03/05 05:10:11;;;;;;;2.45;0.82;;;;;;;;;;4988977;28;20062;-67
2022/03/05 05:12:42;;;;;;;4.80;0.80;;;;;;;;;;4967849;28;20811;-67
2022/03/05 05:15:12;;;;;;;1.73;0.82;;;;;;;;;;4941696;28;20058;-67
2022/03/05 05:17:43;;;;;;;3.50;0.98;;;;;;;;;;4989909;28;20058;-67
2022/03/05 05:20:16;;;;;;;1.85;0.85;;;;;;;;;;4974006;28;20066;-67
2022/03/05 05:22:48;;;;;;;1.25;0.80;;;;;;;;;;4989415;28;20050;-67
2022/03/05 05:25:19;;;;;;;2.10;0.82;;;;;;;;;;4989522;28;20414;-67
2022/03/05 05:27:48;;;;;;;1.88;0.70;;;;;;;;;;4989118;28;20097;-67
2022/03/05 05:30:19;;;;;;;1.98;0.50;;;;;;;;;;5001887;28;20094;-67
2022/03/05 05:32:56;;;;;;;4.57;0.77;;;;;;;;;;5008837;28;20502;-67
2022/03/05 05:35:27;;;;;;;2.85;0.80;;;;;;;;;;5033542;28;20056;-67
2022/03/05 05:37:59;;;;;;;3.72;0.70;;;;;;;;;;5033715;28;20135;-67
2022/03/05 05:40:31;;;;;;;4.03;0.80;;;;;;;;;;4999889;28;20251;-67
2022/03/05 05:43:05;;;;;;;2.05;1.00;;;;;;;;;;5048686;28;20141;-67
2022/03/05 05:45:40;;;;;;;2.08;0.70;;;;;;;;;;5062927;28;20067;-67
2022/03/05 05:48:11;;;;;;;;;;;;;;;;;;5072403;28;20063;-67
2022/03/05 05:50:43;;;;;;;2.15;1.02;;;;;;;;;;5068973;28;19928;-67
2022/03/05 05:53:17;;;;;;;2.90;0.93;;;;;;;;;;5071054;28;20055;-67
2022/03/05 05:55:49;;;;;;;3.78;0.82;;;;;;;;;;5070903;28;20051;-67
2022/03/05 05:58:22;;;;;;;5.80;0.80;;;;;;;;;;5079220;28;20051;-66
2022/03/05 06:00:53;;;;;;;2.45;0.90;;;;;;;;;;5073429;28;20049;-67
2022/03/05 06:03:24;;;;;;;2.65;0.90;;;;;;;;;;5071045;28;20051;-67
2022/03/05 06:06:01;;;;;;;2.55;0.70;;;;;;;;;;5068643;28;20531;-67
2022/03/05 06:08:32;;;;;;;6.47;0.95;;;;;;;;;;5070464;28;20388;-67
2022/03/05 06:11:02;;;;;;;3.97;0.82;;;;;;;;;;5088956;28;20036;-67
2022/03/05 06:13:33;;;;;;;4.05;0.80;;;;;;;;;;5055875;28;20056;-67
2022/03/05 06:16:07;;;;;;;6.15;0.98;;;;;;;;;;5090846;28;20040;-67
2022/03/05 06:18:41;;;;;;;4.60;0.90;;;;;;;;;;5091672;28;20055;-67
2022/03/05 06:21:11;;;;;;;4.28;0.80;;;;;;;;;;5025113;28;20040;-67
2022/03/05 06:23:41;;;;;;;2.75;0.80;;;;;;;;;;5007880;28;20781;-66
2022/03/05 06:26:12;;;;;;;2.92;0.95;;;;;;;;;;5018900;28;20057;-67
2022/03/05 06:28:44;;;;;;;4.35;1.00;;;;;;;;;;5070588;28;20068;-67
2022/03/05 06:31:16;;;;;;;2.97;0.90;;;;;;;;;;5020679;28;20056;-67
2022/03/05 06:33:47;;;;;;;;;;;;;;;;;;5003319;28;20821;-67
2022/03/05 06:36:17;;;;;;;3.28;0.90;;;;;;;;;;5051482;28;20282;-67
2022/03/05 06:38:51;;;;;;;4.05;0.88;;;;;;;;;;5051777;28;20448;-66
2022/03/05 06:41:24;;;;;;;4.53;1.00;;;;;;;;;;5051725;28;20052;-66
2022/03/05 06:43:56;;;;;;;3.53;1.05;;;;;;;;;;5052195;28;20092;-66
2022/03/05 06:46:26;;;;;;;4.10;1.20;;;;;;;;;;5051334;28;20064;-67
2022/03/05 06:48:57;;;;;;;5.47;1.00;;;;;;;;;;5051937;28;20053;-67
2022/03/05 06:51:27;;;;;;;3.38;1.05;;;;;;;;;;5003039;28;20061;-66
2022/03/05 06:53:58;;;;;;;;;;;;;;;;;;5051531;28;20453;-67
2022/03/05 06:56:28;;;;;;;2.35;0.98;;;;;;;;;;5000479;28;19921;-66
2022/03/05 06:59:00;;;;;;;3.60;1.23;;;;;;;;;;5012360;28;20053;-67
2022/03/05 07:01:39;;;;;;;2.45;0.90;;;;;;;;;;5071046;28;20413;-67
2022/03/05 07:04:11;;;;;;;3.10;1.20;;;;;;;;;;5071407;28;20048;-67
2022/03/05 07:06:42;;;;;;;4.15;1.05;;;;;;;;;;5069957;28;20096;-67
2022/03/05 07:09:12;;;;;;;3.65;1.20;;;;;;;;;;5072536;28;20071;-66
2022/03/05 07:11:46;;;;;;;1.77;1.00;;;;;;;;;;5094090;28;20048;-66
2022/03/05 07:14:17;;;;;;;2.72;1.10;;;;;;;;;;5044704;28;20055;-67
2022/03/05 07:16:47;;;;;;;2.63;1.02;;;;;;;;;;5073810;28;20503;-67
2022/03/05 07:19:17;;;;;;;2.58;0.82;;;;;;;;;;5075041;28;20036;-67
2022/03/05 07:21:48;;;;;;;2.17;0.65;;;;;;;;;;5051520;28;20052;-67
2022/03/05 07:24:20;;;;;;;3.28;1.08;;;;;;;;;;5073704;28;20428;-67
2022/03/05 07:26:52;;;;;;;2.10;0.90;;;;;;;;;;5073554;28;20515;-67
2022/03/05 07:29:22;;;;;;;6.95;1.35;;;;;;;;;;5048044;28;20056;-67
2022/03/05 07:31:53;;;;;;;5.47;0.85;;;;;;;;;;5073549;28;20049;-67
2022/03/05 07:34:24;;;;;;;3.25;1.00;;;;;;;;;;5051551;28;20060;-67
2022/03/05 07:36:59;;;;;;;4.57;0.90;;;;;;;;;;5050905;28;20493;-67
2022/03/05 07:39:29;;;;;;;7.20;1.20;;;;;;;;;;5034258;28;20060;-67
2022/03/05 07:41:59;;;;;;;3.33;1.10;;;;;;;;;;5049102;28;20060;-66
2022/03/05 07:44:33;;;;;;;8.30;1.30;;;;;;;;;;5050366;28;20061;-67
2022/03/05 07:47:06;;;;;;;2.95;1.08;;;;;;;;;;5017955;28;20064;-67
2022/03/05 07:49:39;;;;;;;4.55;1.10;;;;;;;;;;5050865;28;20044;-67
2022/03/05 07:52:11;;;;;;;4.80;1.17;;;;;;;;;;5049195;28;20060;-67
2022/03/05 07:54:43;;;;;;;1.88;1.00;;;;;;;;;;4997381;28;20091;-67
2022/03/05 07:57:15;;;;;;;4.00;1.00;;;;;;;;;;5039695;28;20727;-67
2022/03/05 07:59:48;;;;;;;3.53;1.10;;;;;;;;;;5050982;28;20068;-67
2022/03/05 08:02:41;;;;;;;5.40;1.10;;;;;;;;;;5021437;28;20053;-67
2022/03/05 08:05:17;;;;;;;5.18;1.13;;;;;;;;;;5030330;28;20061;-67
2022/03/05 08:07:50;;;;;;;4.90;1.02;;;;;;;;;;5000510;28;20477;-67
2022/03/05 08:10:22;;;;;;;4.38;1.20;;;;;;;;;;4990948;28;20399;-67
2022/03/05 08:12:52;;;;;;;2.22;1.10;;;;;;;;;;4990951;28;20054;-66
2022/03/05 08:15:23;;;;;;;4.30;1.10;;;;;;;;;;4963053;28;20050;-67
2022/03/05 08:17:58;;;;;;;4.20;1.20;;;;;;;;;;4971409;28;20051;-66
2022/03/05 08:20:34;;;;;;;2.40;1.00;;;;;;;;;;4972026;28;20050;-67
2022/03/05 08:23:05;;;;;;;5.13;1.10;;;;;;;;;;4945867;28;20054;-67
2022/03/05 08:25:36;;;;;;;5.97;1.20;;;;;;;;;;5015394;28;20041;-67
2022/03/05 08:28:10;;;;;;;6.57;1.27;;;;;;;;;;4981337;28;20050;-67
2022/03/05 08:30:43;;;;;;;1.77;1.08;;;;;;;;;;4996713;28;20067;-67
2022/03/05 08:33:13;;;;;;;3.97;1.10;;;;;;;;;;5024653;28;20469;-67
2022/03/05 08:35:51;;;;;;;4.90;1.15;;;;;;;;;;5023118;28;20057;-68
2022/03/05 08:38:31;;;;;;;3.03;0.90;;;;;;;;;;4997094;28;20062;-68
2022/03/05 08:41:03;;;;;;;3.83;1.00;;;;;;;;;;5013230;28;20528;-68
2022/03/05 08:43:34;;;;;;;6.70;1.33;;;;;;;;;;4998185;28;20057;-67
2022/03/05 08:46:07;;;;;;;2.28;0.80;;;;;;;;;;5029646;28;20053;-68
2022/03/05 08:48:38;;;;;;;2.22;0.95;;;;;;;;;;5056726;28;20524;-68
2022/03/05 08:51:09;;;;;;;4.25;1.08;;;;;;;;;;5069575;28;20051;-68
2022/03/05 08:53:39;;;;;;;3.78;1.30;;;;;;;;;;5069264;28;20060;-67
2022/03/05 08:56:13;;;;;;;4.93;1.60;;;;;;;;;;5064575;28;20468;-68
2022/03/05 08:58:46;;;;;;;3.72;1.15;;;;;;;;;;5056106;28;20080;-68
2022/03/05 09:01:17;;;;;;;5.45;1.15;;;;;;;;;;5049254;28;20071;-68
2022/03/05 09:03:49;;;;;;;4.47;1.20;;;;;;;;;;4974161;28;20098;-68
2022/03/05 09:06:22;;;;;;;4.47;1.20;;;;;;;;;;4990287;28;20078;-68
2022/03/05 09:08:57;;;;;;;12.05;1.42;;;;;;;;;;4986031;28;20054;-68
2022/03/05 09:11:27;;;;;;;2.25;1.13;;;;;;;;;;4961642;28;20064;-68
2022/03/05 09:13:58;;;;;;;4.65;1.10;;;;;;;;;;5009686;28;20065;-68
2022/03/05 09:16:28;;;;;;;4.05;1.30;;;;;;;;;;5009618;28;20054;-68
2022/03/05 09:18:58;;;;;;;3.50;1.40;;;;;;;;;;4962403;28;20054;-68
2022/03/05 09:21:34;;;;;;;2.92;1.23;;;;;;;;;;4973718;28;20065;-68
2022/03/05 09:24:07;;;;;;;4.97;1.13;;;;;;;;;;4973467;28;20046;-68
2022/03/05 09:26:40;;;;;;;9.65;1.35;;;;;;;;;;4989865;28;20067;-68
2022/03/05 09:29:13;;;;;;;3.10;1.40;;;;;;;;;;4958027;28;20061;-68
2022/03/05 09:31:46;;;;;;;4.43;1.52;;;;;;;;;;4989909;28;20062;-68
2022/03/05 09:34:16;;;;;;;5.55;1.70;;;;;;;;;;5015898;28;20054;-68
2022/03/05 09:36:46;;;;;;;2.67;1.30;;;;;;;;;;5028928;28;20057;-68
2022/03/05 09:39:21;;;;;;;4.85;1.40;;;;;;;;;;5044090;28;20410;-68
2022/03/05 09:41:54;;;;;;;3.60;1.42;;;;;;;;;;5052282;28;20523;-67
2022/03/05 09:44:26;;;;;;;7.68;1.73;;;;;;;;;;5059309;28;20040;-67
2022/03/05 09:46:58;;;;;;;4.53;1.38;;;;;;;;;;5026665;28;20052;-67
2022/03/05 09:49:38;;;;;;;5.40;1.30;;;;;;;;;;5009098;28;20842;-67
2022/03/05 09:52:09;;;;;;;4.05;1.48;;;;;;;;;;5007250;28;20073;-67
2022/03/05 09:54:41;;;;;;;5.85;1.30;;;;;;;;;;5027985;28;20056;-67
2022/03/05 09:57:13;;;;;;;5.82;1.50;;;;;;;;;;4989396;28;20066;-67
2022/03/05 09:59:47;;;;;;;2.90;1.30;;;;;;;;;;4973503;28;20785;-67
2022/03/05 10:02:20;;;;;;;;;;;;;;;;;;4988478;28;20058;-68
2022/03/05 10:05:26;;;;;;;5.43;1.70;;;;;;;;;;4956230;28;20378;-67
2022/03/05 10:07:59;;;;;;;3.92;1.50;;;;;;;;;;4989094;28;20065;-67
2022/03/05 10:10:51;;;;;;;3.53;1.30;;;;;;;;;;4972937;28;20050;-68
2022/03/05 10:13:26;;;;;;;5.82;1.60;;;;;;;;;;4988827;28;20059;-68
2022/03/05 10:15:59;;;;;;;3.95;1.60;;;;;;;;;;4953218;28;20507;-68
2022/03/05 10:18:31;;;;;;;16.17;1.75;;;;;;;;;;4922037;28;20489;-68
2022/03/05 10:21:10;;;;;;;8.18;1.55;;;;;;;;;;4969868;28;20899;-68
2022/03/05 10:23:47;;;;;;;3.83;1.73;;;;;;;;;;4978381;28;20069;-68
2022/03/05 10:26:22;;;;;;;5.40;1.70;;;;;;;;;;5028295;28;20053;-67
2022/03/05 10:28:52;;;;;;;5.00;1.67;;;;;;;;;;4972268;28;20518;-67
2022/03/05 10:31:23;;;;;;;5.70;1.73;;;;;;;;;;4989621;28;20058;-68
2022/03/05 10:33:57;;;;;;;9.65;1.30;;;;;;;;;;4961173;28;20053;-68
2022/03/05 10:36:28;;;;;;;7.25;1.70;;;;;;;;;;5028208;28;20045;-68
2022/03/05 10:39:02;;;;;;;2.78;1.40;;;;;;;;;;5046505;28;20052;-68
2022/03/05 10:41:43;;;;;;;5.15;1.48;;;;;;;;;;5042083;28;20053;-67
2022/03/05 10:44:17;;;;;;;3.80;1.80;;;;;;;;;;5031689;28;20784;-68
2022/03/05 10:46:59;;;;;;;4.50;1.45;;;;;;;;;;5029027;28;20057;-68
2022/03/05 10:49:39;;;;;;;3.90;1.77;;;;;;;;;;4976358;28;20050;-67
2022/03/05 10:52:14;;;;;;;2.80;1.33;;;;;;;;;;4988696;28;20058;-67
2022/03/05 10:54:48;;;;;;;4.35;1.65;;;;;;;;;;4988937;28;20494;-67
2022/03/05 10:57:22;;;;;;;4.80;1.92;;;;;;;;;;5006128;28;20065;-67
2022/03/05 10:59:55;;;;;;;5.38;1.45;;;;;;;;;;5007746;28;20061;-67
2022/03/05 11:02:27;;;;;;;8.02;1.70;;;;;;;;;;5007986;28;20050;-67
2022/03/05 11:04:58;;;;;;;6.22;1.50;;;;;;;;;;5009151;28;20053;-67
2022/03/05 11:07:29;;;;;;;2.35;1.30;;;;;;;;;;5006318;28;20092;-68
2022/03/05 11:10:01;;;;;;;2.45;1.40;;;;;;;;;;5017288;28;20069;-67
2022/03/05 11:12:38;;;;;;;2.63;1.52;;;;;;;;;;5015798;28;20532;-67
2022/03/05 11:15:11;;;;;;;2.33;1.10;;;;;;;;;;5030528;28;20136;-67
2022/03/05 11:17:43;;;;;;;2.20;1.13;;;;;;;;;;4991960;28;20077;-68
2022/03/05 11:20:14;;;;;;;4.43;1.13;;;;;;;;;;4992032;28;20055;-67
2022/03/05 11:22:51;;;;;;;3.33;1.30;;;;;;;;;;4975487;28;20522;-68
2022/03/05 11:25:25;;;;;;;4.38;1.00;;;;;;;;;;4992800;28;20066;-68
2022/03/05 11:28:05;;;;;;;2.47;1.10;;;;;;;;;;5008871;28;20057;-69
2022/03/05 11:30:44;;;;;;;2.65;1.02;;;;;;;;;;5031229;28;20104;-68
2022/03/05 11:33:23;;;;;;;6.25;2.03;;;;;;;;;;5031176;28;20101;-68
2022/03/05 11:36:04;;;;;;;3.05;1.23;;;;;;;;;;5050538;28;20541;-66
2022/03/05 11:38:39;;;;;;;2.83;1.20;;;;;;;;;;5067884;28;20071;-66
2022/03/05 11:41:22;;;;;;;3.85;1.33;;;;;;;;;;5036857;28;20052;-66
2022/03/05 11:43:53;;;;;;;4.07;1.00;;;;;;;;;;5064375;28;20060;-66
2022/03/05 11:46:27;;;;;;;2.97;0.82;;;;;;;;;;5022278;28;20052;-67
2022/03/05 11:49:07;;;;;;;3.80;1.42;;;;;;;;;;4989520;28;20081;-66
2022/03/05 11:51:55;;;;;;;9.07;2.95;;;;;;;;;;4975656;28;20058;-67
2022/03/05 11:54:28;;;;;;;2.33;1.42;;;;;;;;;;4991729;28;20395;-67
2022/03/05 11:57:15;;;;;;;6.38;1.55;;;;;;;;;;4959530;28;20050;-66
2022/03/05 11:59:56;;;;;;;4.53;1.33;;;;;;;;;;4990643;28;20486;-67
2022/03/05 12:02:55;;;;;;;3.85;1.48;;;;;;;;;;4990983;28;20117;-68
2022/03/05 12:05:41;;;;;;;2.78;1.33;;;;;;;;;;4989890;28;20058;-67
2022/03/05 12:08:32;;;;;;;1.02;0.50;;;;;;;;;;4991032;28;20062;-69
2022/03/05 12:11:13;;;;;;;0.93;0.50;;;;;;;;;;4971840;28;20058;-68
2022/03/05 12:13:58;;;;;;;2.85;0.60;;;;;;;;;;4971954;28;20059;-68
2022/03/05 12:16:31;;;;;;;0.90;0.50;;;;;;;;;;4979339;28;20541;-69
2022/03/05 12:19:03;;;;;;;7.57;0.55;;;;;;;;;;4990903;28;20046;-68
2022/03/05 12:21:37;;;;;;;0.80;0.60;;;;;;;;;;4975637;28;20482;-68
2022/03/05 12:24:10;;;;;;;1.15;0.50;;;;;;;;;;4946249;28;20059;-67
2022/03/05 12:26:47;;;;;;;0.80;0.40;;;;;;;;;;4976921;28;20058;-68
2022/03/05 12:29:18;;;;;;;2.90;0.50;;;;;;;;;;5007585;28;20042;-67
2022/03/05 12:31:52;;;;;;;1.08;0.50;;;;;;;;;;4981970;28;20597;-66
2022/03/05 12:34:26;;;;;;;1.02;0.50;;;;;;;;;;4985356;28;20082;-67
2022/03/05 12:37:02;;;;;;;2.85;0.63;;;;;;;;;;4969953;28;20055;-67
2022/03/05 12:39:33;;;;;;;1.52;0.60;;;;;;;;;;4968845;28;20058;-68
2022/03/05 12:42:06;;;;;;;1.55;0.50;;;;;;;;;;4950788;28;20062;-66
2022/03/05 12:44:40;;;;;;;1.35;0.50;;;;;;;;;;4946417;28;20043;-66
2022/03/05 12:47:12;;;;;;;2.97;0.68;;;;;;;;;;4969891;28;20058;-66
2022/03/05 12:49:42;;;;;;;1.08;0.50;;;;;;;;;;4969550;28;20061;-67
2022/03/05 12:52:18;;;;;;;1.58;0.68;;;;;;;;;;4969606;28;20046;-67
2022/03/05 12:54:57;;;;;;;2.83;0.70;;;;;;;;;;4969909;28;20062;-66
2022/03/05 12:57:29;;;;;;;3.20;0.90;;;;;;;;;;5000696;28;20536;-66
2022/03/05 13:00:05;;;;;;;2.75;0.80;;;;;;;;;;4959943;28;20054;-67
2022/03/05 13:02:38;;;;;;;1.92;0.80;;;;;;;;;;5006307;28;20395;-67
2022/03/05 13:05:14;;;;;;;2.72;0.50;;;;;;;;;;5007077;28;20112;-67
2022/03/05 13:07:46;;;;;;;1.80;0.65;;;;;;;;;;5023340;28;20513;-67
2022/03/05 13:10:19;;;;;;;1.40;0.60;;;;;;;;;;5040193;28;20067;-66
2022/03/05 13:12:52;;;;;;;1.08;0.73;;;;;;;;;;5066259;28;20071;-66
2022/03/05 13:15:36;;;;;;;3.05;0.63;;;;;;;;;;5070880;28;20037;-66
2022/03/05 13:18:17;;;;;;;2.10;0.50;;;;;;;;;;5068225;28;20067;-66
2022/03/05 13:20:48;;;;;;;2.03;0.70;;;;;;;;;;5071587;28;20037;-67
2022/03/05 13:23:22;;;;;;;2.10;0.45;;;;;;;;;;5072237;28;20047;-65
2022/03/05 13:25:54;;;;;;;1.48;0.50;;;;;;;;;;5035942;28;20068;-64
2022/03/05 13:28:31;;;;;;;1.13;0.40;;;;;;;;;;5028731;28;20052;-66
2022/03/05 13:31:03;;;;;;;1.13;0.43;;;;;;;;;;5048978;28;20084;-67
2022/03/05 13:33:41;;;;;;;1.38;0.40;;;;;;;;;;4985195;28;20061;-65
2022/03/05 13:36:12;;;;;;;1.58;0.40;;;;;;;;;;5008068;28;20730;-67
2022/03/05 13:38:47;;;;;;;1.00;0.45;;;;;;;;;;5009006;28;20077;-68
2022/03/05 13:41:39;;;;;;;2.30;0.60;;;;;;;;;;5009362;28;20073;-69
2022/03/05 13:44:20;;;;;;;2.25;0.43;;;;;;;;;;4987247;28;20057;-68
2022/03/05 13:46:55;;;;;;;1.00;0.40;;;;;;;;;;5028782;28;20058;-67
2022/03/05 13:49:31;;;;;;;0.93;0.35;;;;;;;;;;5013135;28;20044;-66
2022/03/05 13:52:06;;;;;;;0.90;0.50;;;;;;;;;;4979650;28;20057;-67
2022/03/05 13:54:47;;;;;;;5.45;0.88;;;;;;;;;;4997576;28;20049;-67
2022/03/05 13:57:31;;;;;;;2.22;0.52;;;;;;;;;;4979772;28;20053;-67
2022/03/05 14:00:13;;;;;;;3.22;1.20;;;;;;;;;;5012569;28;20054;-68
2022/03/05 14:02:45;;;;;;;3.28;0.82;;;;;;;;;;5008680;28;20057;-67
2022/03/05 14:05:21;;;;;;;1.17;0.60;;;;;;;;;;4990955;28;20053;-66
2022/03/05 14:08:00;;;;;;;0.80;0.50;;;;;;;;;;5050295;28;20047;-68
2022/03/05 14:10:33;;;;;;;1.58;0.47;;;;;;;;;;5048007;28;20052;-71
2022/03/05 14:13:03;;;;;;;0.93;0.55;;;;;;;;;;5059511;28;20049;-68
2022/03/05 14:15:33;;;;;;;0.90;0.35;;;;;;;;;;5053339;28;20056;-69
2022/03/05 14:18:10;;;;;;;1.23;0.43;;;;;;;;;;5066471;28;20408;-70
2022/03/05 14:20:50;;;;;;;1.92;0.60;;;;;;;;;;5067791;28;20045;-69
2022/03/05 14:23:24;;;;;;;0.80;0.52;;;;;;;;;;5035181;28;20056;-68
2022/03/05 14:25:56;;;;;;;1.60;0.52;;;;;;;;;;5051950;28;20053;-68
2022/03/05 14:28:28;;;;;;;2.42;0.52;;;;;;;;;;5066525;28;20056;-70
2022/03/05 14:30:59;;;;;;;1.55;0.50;;;;;;;;;;5034637;28;20064;-68
2022/03/05 14:33:29;;;;;;;1.25;1.00;;;;;;;;;;5034467;28;20057;-68
2022/03/05 14:36:03;;;;;;;1.15;0.52;;;;;;;;;;5060118;28;20049;-69
2022/03/05 14:38:34;;;;;;;1.15;0.50;;;;;;;;;;5048969;28;20052;-68
2022/03/05 14:41:09;;;;;;;1.08;0.50;;;;;;;;;;5051015;28;20057;-71
2022/03/05 14:43:39;;;;;;;1.45;1.35;;;;;;;;;;5010059;28;20049;-67
2022/03/05 14:46:14;;;;;;;1.00;0.50;;;;;;;;;;5011035;28;20058;-68
2022/03/05 14:48:47;;;;;;;;;;;;;;;;;;5012927;28;20054;-68
2022/03/05 14:51:24;;;;;;;0.82;0.50;;;;;;;;;;4979757;28;20441;-68
2022/03/05 14:53:58;;;;;;;1.85;0.45;;;;;;;;;;4984269;28;20058;-68
2022/03/05 14:56:29;;;;;;;0.80;0.80;;;;;;;;;;5015080;28;20085;-71
2022/03/05 14:59:04;;;;;;;2.40;0.63;;;;;;;;;;4999619;28;20053;-68
2022/03/05 15:01:37;;;;;;;1.90;0.60;;;;;;;;;;5030837;28;20403;-72
2022/03/05 15:04:08;;;;;;;0.88;0.60;;;;;;;;;;5031586;28;20652;-69
2022/03/05 15:06:39;;;;;;;0.98;0.40;;;;;;;;;;5031605;28;20733;-69
2022/03/05 15:09:10;;;;;;;3.60;0.65;;;;;;;;;;4975697;28;20050;-68
2022/03/05 15:11:43;;;;;;;4.45;0.70;;;;;;;;;;4991762;28;20069;-68
2022/03/05 15:14:13;;;;;;;1.08;0.40;;;;;;;;;;4991969;28;20050;-68
2022/03/05 15:16:43;;;;;;;1.33;0.45;;;;;;;;;;4943824;28;20057;-69
2022/03/05 15:19:18;;;;;;;2.42;0.60;;;;;;;;;;4960739;28;20442;-68
2022/03/05 15:21:51;;;;;;;0.95;0.50;;;;;;;;;;5020570;28;20066;-69